Time;durP1;ratioP1;P1;durP2;ratioP2;P2;SDS_P1;SDS_P2;PMS_P1;PMS_P2;Temp;Humidity;BMP_temperature;BMP_pressure;BME280_temperature;BME280_humidity;BME280_pressure;Samples;Min_cycle;Max_cycle;Signal;HPM_P1;HPM_P2
2021/12/09 00:01:41;;;;;;;50.63;26.88;;;;;;;1.96;72.70;99898.28;4178846;28;20063;-61
2021/12/09 00:03:44;;;;;;;51.00;27.63;;;;;;;1.95;72.83;99895.66;4181476;28;20052;-61
2021/12/09 00:05:49;;;;;;;;;;;;;;;1.83;73.10;99912.28;4180834;28;20041;-60
2021/12/09 00:07:53;;;;;;;48.00;25.40;;;;;;;1.86;73.27;99902.16;4181493;28;19924;-57
2021/12/09 00:09:56;;;;;;;54.90;26.45;;;;;;;1.88;73.14;99904.78;4178612;28;21779;-61
2021/12/09 00:11:59;;;;;;;47.70;27.15;;;;;;;1.91;72.95;99910.03;4181324;28;20094;-58
2021/12/09 00:14:03;;;;;;;47.88;26.27;;;;;;;1.90;72.84;99898.06;4180631;28;20052;-58
2021/12/09 00:16:06;;;;;;;53.38;28.83;;;;;;;1.85;72.65;99881.59;4180582;28;20040;-58
2021/12/09 00:18:09;;;;;;;54.20;29.35;;;;;;;1.85;72.78;99877.34;4181360;28;21571;-59
2021/12/09 00:20:13;;;;;;;49.72;26.95;;;;;;;1.85;72.92;99884.16;4178743;28;20037;-58
2021/12/09 00:22:18;;;;;;;52.47;28.17;;;;;;;1.85;73.06;99882.47;4176551;28;20090;-59
2021/12/09 00:24:24;;;;;;;53.63;27.88;;;;;;;1.84;73.32;99891.00;4181155;28;20048;-57
2021/12/09 00:26:27;;;;;;;53.28;28.10;;;;;;;1.82;72.90;99886.59;4179974;28;20048;-62
2021/12/09 00:28:30;;;;;;;49.80;27.10;;;;;;;1.79;73.07;99883.94;4163824;28;20041;-60
2021/12/09 00:30:38;;;;;;;52.38;28.20;;;;;;;1.78;73.25;99880.47;4178948;28;20029;-60
2021/12/09 00:32:41;;;;;;;52.35;27.40;;;;;;;1.76;72.81;99881.25;4179026;28;20045;-61
2021/12/09 00:34:48;;;;;;;60.30;31.42;;;;;;;1.71;73.15;99881.06;4180173;28;20036;-61
2021/12/09 00:36:59;;;;;;;56.22;30.02;;;;;;;1.74;73.18;99884.59;4178136;28;20055;-60
2021/12/09 00:39:02;;;;;;;51.22;28.55;;;;;;;1.74;73.92;99891.44;4177495;28;20044;-60
2021/12/09 00:41:08;;;;;;;53.45;28.25;;;;;;;1.75;73.19;99888.03;4179717;28;20033;-60
2021/12/09 00:43:20;;;;;;;48.45;26.75;;;;;;;1.75;73.33;99893.16;4174679;28;20444;-60
2021/12/09 00:45:23;;;;;;;55.22;27.60;;;;;;;1.76;73.44;99888.94;4180205;28;20049;-61
2021/12/09 00:47:26;;;;;;;57.33;31.15;;;;;;;1.73;73.43;99893.09;4179142;28;20107;-62
2021/12/09 00:49:31;;;;;;;49.08;27.35;;;;;;;1.77;73.54;99895.78;4176980;28;20112;-58
2021/12/09 00:51:34;;;;;;;51.58;28.23;;;;;;;1.77;73.45;99895.78;4178271;28;20037;-60
2021/12/09 00:53:38;;;;;;;52.63;30.65;;;;;;;1.82;73.31;99899.41;4178853;28;20083;-59
2021/12/09 00:55:41;;;;;;;59.67;30.75;;;;;;;1.83;73.04;99893.50;4178109;28;20044;-59
2021/12/09 00:57:47;;;;;;;52.25;28.75;;;;;;;1.84;73.37;99890.09;4179275;28;20123;-58
2021/12/09 00:59:50;;;;;;;52.78;29.55;;;;;;;1.84;73.32;99890.09;4176900;28;20572;-61
2021/12/09 01:01:53;;;;;;;51.08;28.45;;;;;;;1.84;73.39;99898.69;4179242;28;20044;-61
2021/12/09 01:03:56;;;;;;;53.88;29.75;;;;;;;1.83;73.23;99906.31;4179576;28;20067;-61
2021/12/09 01:05:59;;;;;;;51.35;29.80;;;;;;;1.85;73.05;99896.97;4179076;28;20049;-57
2021/12/09 01:08:15;;;;;;;55.95;28.67;;;;;;;1.85;73.34;99899.53;4175792;28;20531;-59
2021/12/09 01:10:19;;;;;;;51.92;28.55;;;;;;;1.86;73.36;99891.91;4179407;28;20438;-59
2021/12/09 01:12:22;;;;;;;;;;;;;;;1.72;73.15;99891.38;4163495;28;20037;-60
2021/12/09 01:14:27;;;;;;;56.15;29.13;;;;;;;1.74;73.31;99884.59;4178236;28;19974;-61
2021/12/09 01:16:30;;;;;;;59.83;30.73;;;;;;;1.74;73.52;99887.16;4179961;28;20041;-61
2021/12/09 01:18:35;;;;;;;51.25;27.38;;;;;;;1.74;73.81;99889.75;4177340;28;20071;-59
2021/12/09 01:20:38;;;;;;;54.05;29.25;;;;;;;1.76;73.43;99884.66;4177917;28;20555;-60
2021/12/09 01:22:43;;;;;;;50.47;28.65;;;;;;;1.76;73.03;99882.09;4178842;28;20045;-60
2021/12/09 01:24:46;;;;;;;60.13;31.65;;;;;;;1.73;73.18;99889.69;4176622;28;20033;-59
2021/12/09 01:26:50;;;;;;;59.53;31.80;;;;;;;1.71;73.51;99887.06;4179635;28;20110;-60
2021/12/09 01:28:57;;;;;;;56.05;30.52;;;;;;;1.69;73.58;99868.16;4160803;28;20049;-57
2021/12/09 01:31:03;;;;;;;57.95;30.40;;;;;;;1.72;73.43;99876.00;4175099;28;20033;-61
2021/12/09 01:33:09;;;;;;;58.92;31.77;;;;;;;1.71;73.76;99876.81;4178288;28;20052;-60
2021/12/09 01:35:12;;;;;;;57.72;30.55;;;;;;;1.69;73.29;99888.66;4160581;28;20065;-58
2021/12/09 01:37:15;;;;;;;58.88;30.90;;;;;;;1.70;73.28;99895.53;4179096;28;20037;-58
2021/12/09 01:39:19;;;;;;;57.25;30.67;;;;;;;1.70;73.35;99892.97;4182465;28;20094;-58
2021/12/09 01:41:22;;;;;;;53.38;29.60;;;;;;;1.70;73.79;99903.22;4177698;28;20555;-60
2021/12/09 01:43:25;;;;;;;59.20;31.08;;;;;;;1.70;73.35;99910.91;4178451;28;20124;-60
2021/12/09 01:45:29;;;;;;;57.35;29.67;;;;;;;1.72;73.30;99903.28;4178040;28;20041;-60
2021/12/09 01:47:33;;;;;;;57.38;31.35;;;;;;;1.74;73.50;99905.09;4178597;28;20041;-61
2021/12/09 01:49:36;;;;;;;56.97;31.15;;;;;;;1.73;73.27;99913.59;4177618;28;20040;-60
2021/12/09 01:51:41;;;;;;;57.55;31.48;;;;;;;1.73;73.02;99915.31;4177604;28;20090;-60
2021/12/09 01:53:45;;;;;;;56.25;31.52;;;;;;;1.75;73.25;99923.91;4176699;28;21321;-60
2021/12/09 01:55:51;;;;;;;55.08;29.83;;;;;;;1.72;73.00;99913.53;4176711;28;20053;-60
2021/12/09 01:57:54;;;;;;;55.83;28.88;;;;;;;1.70;73.17;99915.19;4179408;28;20069;-59
2021/12/09 01:59:57;;;;;;;57.92;31.55;;;;;;;1.74;73.36;99909.38;4178090;28;20048;-57
2021/12/09 02:02:01;;;;;;;56.75;31.73;;;;;;;1.76;73.32;99910.28;4174610;28;20444;-60
2021/12/09 02:04:08;;;;;;;58.25;31.45;;;;;;;1.77;73.19;99908.59;4178739;28;20045;-57
2021/12/09 02:06:11;;;;;;;55.10;31.35;;;;;;;1.73;73.28;99905.91;4177292;28;20041;-60
2021/12/09 02:08:15;;;;;;;51.20;28.45;;;;;;;1.74;73.42;99907.66;4165013;28;20367;-62
2021/12/09 02:10:20;;;;;;;52.47;28.10;;;;;;;1.73;72.73;99908.47;4179497;28;20424;-60
2021/12/09 02:12:23;;;;;;;53.33;30.10;;;;;;;1.74;73.26;99894.84;4160277;28;20158;-56
2021/12/09 02:14:26;;;;;;;53.92;28.02;;;;;;;1.76;72.70;99904.31;4177908;28;20033;-58
2021/12/09 02:16:30;;;;;;;49.08;27.58;;;;;;;1.76;73.16;99909.44;4178508;28;20037;-59
2021/12/09 02:18:33;;;;;;;51.25;28.05;;;;;;;1.73;73.00;99921.28;4178795;28;20053;-59
2021/12/09 02:20:40;;;;;;;52.97;28.75;;;;;;;1.76;72.98;99915.41;4178422;28;20045;-58
2021/12/09 02:22:48;;;;;;;58.47;29.30;;;;;;;1.77;72.75;99916.28;4179456;28;20506;-57
2021/12/09 02:24:52;;;;;;;60.88;30.30;;;;;;;1.79;72.52;99912.13;4178998;28;20073;-60
2021/12/09 02:26:55;;;;;;;56.05;30.38;;;;;;;1.75;72.86;99908.53;4178964;28;20037;-60
2021/12/09 02:29:00;;;;;;;54.35;30.25;;;;;;;1.78;72.51;99918.03;4159897;28;20056;-57
2021/12/09 02:31:03;;;;;;;59.38;30.85;;;;;;;1.77;72.51;99912.06;4178050;28;20040;-59
2021/12/09 02:33:06;;;;;;;55.05;30.73;;;;;;;1.78;72.40;99915.47;4178098;28;20125;-58
2021/12/09 02:35:10;;;;;;;53.03;29.13;;;;;;;1.82;72.59;99914.81;4177840;28;20056;-60
2021/12/09 02:37:14;;;;;;;55.17;29.73;;;;;;;1.81;72.19;99924.19;4177040;28;20397;-58
2021/12/09 02:39:17;;;;;;;56.35;29.30;;;;;;;1.80;72.53;99914.75;4160805;28;20045;-59
2021/12/09 02:41:24;;;;;;;54.00;30.85;;;;;;;1.83;72.42;99916.56;4160402;28;20037;-61
2021/12/09 02:43:30;;;;;;;61.55;31.80;;;;;;;1.83;72.42;99911.44;4176959;28;20041;-57
2021/12/09 02:45:33;;;;;;;54.40;30.52;;;;;;;1.82;72.14;99912.25;4175597;28;20037;-61
2021/12/09 02:47:36;;;;;;;51.00;28.13;;;;;;;1.85;72.48;99925.16;4161234;28;20037;-60
2021/12/09 02:49:39;;;;;;;52.40;29.75;;;;;;;1.85;72.35;99920.03;4176892;28;20060;-55
2021/12/09 02:51:43;;;;;;;51.33;29.90;;;;;;;1.84;72.49;99923.41;4177062;28;20486;-62
2021/12/09 02:53:47;;;;;;;54.63;29.42;;;;;;;1.84;71.70;99920.84;4176028;28;20074;-59
2021/12/09 02:55:51;;;;;;;59.17;32.58;;;;;;;1.80;72.37;99925.00;4173019;28;20071;-58
2021/12/09 02:57:54;;;;;;;56.15;31.42;;;;;;;1.79;72.26;99914.69;4160330;28;20053;-60
2021/12/09 02:59:58;;;;;;;54.42;30.67;;;;;;;1.79;72.30;99924.94;4177644;28;20048;-60
2021/12/09 03:02:05;;;;;;;54.67;29.77;;;;;;;1.77;72.35;99921.41;4180602;28;20045;-59
2021/12/09 03:04:08;;;;;;;58.15;31.20;;;;;;;1.75;72.77;99929.03;4181635;28;20075;-61
2021/12/09 03:06:11;;;;;;;53.90;29.65;;;;;;;1.75;72.41;99918.78;4180513;28;20270;-59
2021/12/09 03:08:21;;;;;;;58.67;29.92;;;;;;;1.78;72.63;99915.47;4179735;28;20044;-59
2021/12/09 03:10:26;;;;;;;52.63;28.35;;;;;;;1.79;72.39;99912.13;4177484;28;20045;-61
2021/12/09 03:12:31;;;;;;;55.65;29.58;;;;;;;1.80;72.36;99911.31;4180625;28;20128;-59
2021/12/09 03:14:35;;;;;;;54.72;30.30;;;;;;;1.79;72.23;99902.72;4179631;28;20044;-61
2021/12/09 03:16:39;;;;;;;55.28;31.95;;;;;;;1.80;72.07;99908.75;4180072;28;20052;-59
2021/12/09 03:18:49;;;;;;;54.30;31.13;;;;;;;1.80;72.16;99901.06;4162693;28;20108;-60
2021/12/09 03:20:52;;;;;;;55.05;30.15;;;;;;;1.79;71.91;99904.44;4180313;28;20041;-61
2021/12/09 03:22:55;;;;;;;56.55;30.38;;;;;;;1.78;72.26;99900.97;4181020;28;20033;-56
2021/12/09 03:24:58;;;;;;;54.80;30.52;;;;;;;1.80;72.00;99901.06;4180576;28;20049;-58
2021/12/09 03:27:03;;;;;;;55.42;30.27;;;;;;;1.82;72.11;99894.28;4179788;28;20037;-61
2021/12/09 03:29:07;;;;;;;;;;;;;;;1.68;72.20;99904.88;4175566;28;20033;-60
2021/12/09 03:31:10;;;;;;;58.85;30.10;;;;;;;1.72;72.37;99900.72;4179796;28;20060;-60
2021/12/09 03:33:13;;;;;;;56.17;29.52;;;;;;;1.74;72.65;99897.41;4181196;28;20029;-61
2021/12/09 03:35:16;;;;;;;51.80;28.85;;;;;;;1.77;72.02;99901.81;4180543;28;20434;-59
2021/12/09 03:37:22;;;;;;;54.33;30.33;;;;;;;1.81;72.39;99916.50;4174864;28;20049;-61
2021/12/09 03:39:32;;;;;;;61.45;31.85;;;;;;;1.81;71.93;99919.06;4180195;28;20039;-59
2021/12/09 03:41:35;;;;;;;59.42;31.23;;;;;;;1.79;71.96;99915.53;4180172;28;20053;-59
2021/12/09 03:43:40;;;;;;;62.40;31.35;;;;;;;1.81;72.04;99913.94;4178480;28;20090;-60
2021/12/09 03:45:43;;;;;;;60.10;30.85;;;;;;;1.79;71.92;99909.56;4181063;28;20048;-60
2021/12/09 03:47:46;;;;;;;56.80;29.75;;;;;;;1.78;72.33;99902.66;4180534;28;20053;-60
2021/12/09 03:49:50;;;;;;;52.67;29.23;;;;;;;1.78;72.48;99902.66;4162711;28;20054;-61
2021/12/09 03:51:53;;;;;;;58.38;30.88;;;;;;;1.78;72.22;99897.53;4163547;28;20084;-61
2021/12/09 03:53:56;;;;;;;57.15;30.25;;;;;;;1.79;71.98;99899.31;4179757;28;20044;-58
2021/12/09 03:56:00;;;;;;;57.95;30.20;;;;;;;1.79;71.75;99894.19;4181661;28;20056;-59
2021/12/09 03:58:03;;;;;;;54.95;30.83;;;;;;;1.76;71.83;99899.19;4179673;28;20128;-58
2021/12/09 04:00:09;;;;;;;59.75;31.70;;;;;;;1.79;72.28;99904.44;4183102;28;20095;-60
2021/12/09 04:02:14;;;;;;;59.17;31.77;;;;;;;1.75;72.13;99908.53;4183171;28;20036;-58
2021/12/09 04:04:18;;;;;;;60.13;32.05;;;;;;;1.77;71.65;99906.03;4180607;28;20037;-60
2021/12/09 04:06:21;;;;;;;54.80;30.98;;;;;;;1.76;71.81;99924.81;4179690;28;20040;-60
2021/12/09 04:08:24;;;;;;;56.80;30.23;;;;;;;1.76;71.85;99930.78;4178130;28;20040;-58
2021/12/09 04:10:28;;;;;;;50.78;27.65;;;;;;;1.79;72.38;99941.16;4162070;28;20457;-59
2021/12/09 04:12:31;;;;;;;56.40;30.13;;;;;;;1.82;71.72;99935.31;4181257;28;20037;-59
2021/12/09 04:14:36;;;;;;;53.63;28.70;;;;;;;1.82;72.10;99940.44;4178596;28;20061;-60
2021/12/09 04:16:41;;;;;;;54.28;30.77;;;;;;;1.80;72.29;99944.63;4180887;28;20337;-60
2021/12/09 04:18:44;;;;;;;;;;;;;;;1.68;72.35;99948.44;4180247;28;20048;-60
2021/12/09 04:20:48;;;;;;;54.70;27.88;;;;;;;1.72;72.63;99950.31;4177531;28;20386;-58
2021/12/09 04:22:51;;;;;;;52.47;32.78;;;;;;;1.77;72.20;99941.91;4177938;28;20044;-59
2021/12/09 04:24:54;;;;;;;52.50;28.95;;;;;;;1.79;72.10;99935.19;4180052;28;20036;-59
2021/12/09 04:26:58;;;;;;;56.35;30.40;;;;;;;1.81;72.35;99933.53;4155833;28;20514;-58
2021/12/09 04:29:01;;;;;;;56.78;30.52;;;;;;;1.79;72.27;99935.19;4179100;28;20119;-61
2021/12/09 04:31:04;;;;;;;52.50;28.30;;;;;;;1.78;72.10;99928.28;4175404;28;20139;-61
2021/12/09 04:33:09;;;;;;;59.65;30.05;;;;;;;1.78;72.14;99934.28;4180042;28;20087;-60
2021/12/09 04:35:13;;;;;;;60.03;31.33;;;;;;;1.72;72.07;99929.81;4178709;28;20057;-57
2021/12/09 04:37:15;;;;;;;60.38;29.77;;;;;;;1.77;72.20;99932.56;4173880;28;20116;-58
2021/12/09 04:39:19;;;;;;;58.95;31.17;;;;;;;1.80;71.76;99931.81;4176766;28;20099;-62
2021/12/09 04:41:22;;;;;;;60.17;29.83;;;;;;;1.81;71.89;99915.59;4180781;28;20533;-57
2021/12/09 04:43:26;;;;;;;52.55;28.73;;;;;;;1.80;71.69;99919.00;4179074;28;20443;-59
2021/12/09 04:45:33;;;;;;;;;;;;;;;1.64;72.49;99926.03;4162889;28;20418;-60
2021/12/09 04:47:36;;;;;;;55.38;30.70;;;;;;;1.67;72.41;99920.19;4178188;28;19982;-57
2021/12/09 04:49:41;;;;;;;57.88;29.73;;;;;;;1.72;72.52;99934.94;4178698;28;20414;-59
2021/12/09 04:51:44;;;;;;;50.13;29.40;;;;;;;1.75;72.44;99946.97;4180352;28;20045;-60
2021/12/09 04:53:47;;;;;;;53.83;29.77;;;;;;;1.78;72.55;99941.97;4177211;28;20045;-58
2021/12/09 04:55:50;;;;;;;53.95;28.27;;;;;;;1.78;72.21;99944.53;4180099;28;20037;-60
2021/12/09 04:57:54;;;;;;;58.10;31.08;;;;;;;1.83;72.49;99947.31;4171306;28;20033;-60
2021/12/09 04:59:57;;;;;;;63.28;29.88;;;;;;;1.82;72.18;99938.72;4170746;28;20133;-61
2021/12/09 05:02:01;;;;;;;57.13;29.27;;;;;;;1.83;72.23;99937.94;4178344;28;20090;-59
2021/12/09 05:04:05;;;;;;;58.90;31.52;;;;;;;1.82;72.17;99948.13;4179371;28;20036;-59
2021/12/09 05:06:10;;;;;;;58.92;31.27;;;;;;;1.81;72.42;99938.66;4175965;28;20043;-61
2021/12/09 05:08:15;;;;;;;58.20;29.52;;;;;;;1.80;72.34;99942.06;4179143;28;20448;-59
2021/12/09 05:10:18;;;;;;;60.17;31.20;;;;;;;1.81;72.37;99928.41;4178075;28;20107;-60
2021/12/09 05:12:22;;;;;;;61.33;31.75;;;;;;;1.83;71.85;99926.81;4162485;28;20087;-60
2021/12/09 05:14:25;;;;;;;52.55;30.02;;;;;;;1.81;72.29;99933.53;4179749;28;20091;-61
2021/12/09 05:16:28;;;;;;;59.88;31.75;;;;;;;1.81;72.32;99942.13;4179555;28;20448;-58
2021/12/09 05:18:35;;;;;;;62.88;32.45;;;;;;;1.81;72.34;99949.81;4171878;28;20045;-59
2021/12/09 05:20:39;;;;;;;55.78;31.65;;;;;;;1.80;72.04;99947.19;4178551;28;20091;-58
2021/12/09 05:22:43;;;;;;;62.85;33.92;;;;;;;1.81;72.10;99942.13;4179219;28;20052;-59
2021/12/09 05:24:49;;;;;;;58.22;29.77;;;;;;;1.79;72.06;99936.03;4179878;28;20057;-60
2021/12/09 05:26:55;;;;;;;61.22;32.65;;;;;;;1.78;72.37;99931.72;4178235;28;20048;-59
2021/12/09 05:28:58;;;;;;;55.75;30.65;;;;;;;1.77;72.18;99927.44;4178612;28;20061;-60
2021/12/09 05:33:23;;;;;;;56.22;31.23;;;;;;;1.76;71.99;99937.63;4179316;28;20040;-61
2021/12/09 05:35:26;;;;;;;57.80;31.75;;;;;;;1.77;72.18;99947.03;4178490;28;20049;-59
2021/12/09 05:37:29;;;;;;;60.13;31.48;;;;;;;1.76;71.98;99947.88;4177337;28;20393;-61
2021/12/09 05:39:34;;;;;;;67.78;32.67;;;;;;;1.75;71.79;99952.09;4178644;28;20051;-60
2021/12/09 05:41:37;;;;;;;58.55;30.77;;;;;;;1.73;72.02;99962.28;4177884;28;20039;-61
2021/12/09 05:43:40;;;;;;;63.00;32.83;;;;;;;1.73;72.18;99963.97;4161957;28;20506;-60
2021/12/09 05:45:44;;;;;;;59.65;35.40;;;;;;;1.72;71.72;99965.69;4179713;28;20045;-58
2021/12/09 05:47:48;;;;;;;65.63;34.80;;;;;;;1.73;72.08;99972.53;4179371;28;20053;-61
2021/12/09 05:49:52;;;;;;;58.72;31.63;;;;;;;1.74;72.01;99970.88;4178236;28;20405;-59
2021/12/09 05:52:04;;;;;;;62.20;34.25;;;;;;;1.74;72.05;99974.28;4162546;28;20050;-58
2021/12/09 05:54:07;;;;;;;61.35;31.70;;;;;;;1.72;71.78;99970.81;4176186;28;20049;-61
2021/12/09 05:56:12;;;;;;;62.85;34.38;;;;;;;1.70;71.74;99976.66;4178298;28;20037;-60
2021/12/09 05:58:17;;;;;;;64.55;34.35;;;;;;;1.69;71.86;99980.91;4179440;28;20049;-61
2021/12/09 06:00:23;;;;;;;62.03;31.05;;;;;;;1.63;72.11;99985.78;4176768;28;20033;-60
2021/12/09 06:02:29;;;;;;;64.80;33.97;;;;;;;1.64;72.01;99982.41;4178352;28;20092;-58
2021/12/09 06:04:32;;;;;;;61.08;33.65;;;;;;;1.61;71.84;99984.84;4178441;28;20051;-60
2021/12/09 06:06:38;;;;;;;61.78;33.58;;;;;;;1.61;71.91;99984.84;4176416;28;20037;-60
2021/12/09 06:08:42;;;;;;;61.67;32.58;;;;;;;1.61;72.00;99986.50;4179037;28;20051;-59
2021/12/09 06:10:46;;;;;;;65.05;36.50;;;;;;;1.61;72.40;99973.69;4178077;28;20045;-60
2021/12/09 06:12:54;;;;;;;65.25;35.83;;;;;;;1.59;72.08;99968.50;4178110;28;20044;-58
2021/12/09 06:14:57;;;;;;;60.75;31.95;;;;;;;1.60;72.12;99961.72;4179031;28;21160;-57
2021/12/09 06:17:00;;;;;;;63.92;33.85;;;;;;;1.58;72.06;99956.53;4176625;28;20040;-60
2021/12/09 06:19:04;;;;;;;62.63;33.80;;;;;;;1.60;72.40;99965.16;4176841;28;20437;-57
2021/12/09 06:21:07;;;;;;;67.32;35.50;;;;;;;1.62;72.34;99968.69;4179119;28;20509;-58
2021/12/09 06:23:11;;;;;;;62.95;33.05;;;;;;;1.63;72.07;99975.53;4178907;28;20128;-60
2021/12/09 06:25:18;;;;;;;64.03;34.15;;;;;;;1.63;71.91;99972.09;4178395;28;20432;-57
2021/12/09 06:27:21;;;;;;;63.58;35.28;;;;;;;1.61;72.45;99961.78;4179216;28;20037;-56
2021/12/09 06:29:25;;;;;;;65.68;33.83;;;;;;;1.62;72.03;99973.78;4178142;28;20041;-56
2021/12/09 06:31:29;;;;;;;63.55;33.03;;;;;;;1.59;72.03;99973.63;4177468;28;20067;-57
2021/12/09 06:33:33;;;;;;;63.15;33.50;;;;;;;1.60;72.33;99972.84;4174258;28;20083;-57
2021/12/09 06:35:36;;;;;;;60.15;32.88;;;;;;;1.61;72.38;99977.16;4173501;28;20041;-56
2021/12/09 06:37:43;;;;;;;60.63;32.20;;;;;;;1.62;72.08;99981.50;4177757;28;20569;-58
2021/12/09 06:39:46;;;;;;;69.25;35.47;;;;;;;1.61;72.33;99982.28;4180283;28;20052;-57
2021/12/09 06:41:49;;;;;;;65.88;32.35;;;;;;;1.61;72.32;99984.84;4164362;28;20045;-55
2021/12/09 06:43:53;;;;;;;64.53;33.05;;;;;;;1.61;72.26;99982.28;4184183;28;20813;-58
2021/12/09 06:45:58;;;;;;;67.25;34.20;;;;;;;1.62;72.21;99989.16;4162349;28;20095;-59
2021/12/09 06:48:01;;;;;;;69.40;36.83;;;;;;;1.61;72.24;99991.63;4180380;28;20513;-58
2021/12/09 06:50:06;;;;;;;65.05;34.72;;;;;;;1.60;71.94;99990.78;4179996;28;20487;-57
2021/12/09 06:52:09;;;;;;;59.95;32.67;;;;;;;1.58;72.30;99989.84;4178907;28;20493;-58
2021/12/09 06:54:12;;;;;;;67.75;34.88;;;;;;;1.57;72.68;100000.91;4181226;28;20041;-59
2021/12/09 06:56:15;;;;;;;67.72;35.92;;;;;;;1.56;72.27;99994.00;4162292;28;20457;-59
2021/12/09 06:58:21;;;;;;;71.03;36.55;;;;;;;1.55;72.33;100002.53;4163302;28;20064;-60
2021/12/09 07:00:26;;;;;;;65.47;33.92;;;;;;;1.58;72.30;100002.66;4180813;28;20422;-58
2021/12/09 07:02:30;;;;;;;65.68;35.03;;;;;;;1.56;72.57;100009.38;4180622;28;20068;-58
2021/12/09 07:04:37;;;;;;;64.22;32.97;;;;;;;1.54;72.12;100003.31;4184242;28;20592;-60
2021/12/09 07:06:40;;;;;;;66.95;36.60;;;;;;;1.54;72.03;100013.56;4178317;28;20048;-57
2021/12/09 07:08:46;;;;;;;65.82;35.80;;;;;;;1.51;72.34;100018.56;4180200;28;20167;-58
2021/12/09 07:10:51;;;;;;;64.78;34.40;;;;;;;1.52;72.09;100022.84;4163972;28;20061;-59
2021/12/09 07:12:55;;;;;;;65.90;35.88;;;;;;;1.51;72.21;100021.13;4184299;28;20049;-56
2021/12/09 07:14:58;;;;;;;62.97;33.63;;;;;;;1.51;72.82;100019.44;4164207;28;20029;-57
2021/12/09 07:17:01;;;;;;;68.32;34.88;;;;;;;1.47;72.75;100024.38;4182402;28;20087;-53
2021/12/09 07:19:06;;;;;;;72.03;36.17;;;;;;;1.51;72.69;100021.13;4180638;28;20095;-56
2021/12/09 07:21:09;;;;;;;66.75;35.78;;;;;;;1.54;72.81;100016.13;4180239;28;20502;-56
2021/12/09 07:23:12;;;;;;;65.13;34.15;;;;;;;1.68;73.02;100022.72;4183657;28;20041;-53
2021/12/09 07:25:16;;;;;;;67.90;35.03;;;;;;;1.74;72.60;100012.75;4180778;28;20090;-55
2021/12/09 07:27:19;;;;;;;72.13;38.03;;;;;;;1.79;71.90;100010.38;4183135;28;20049;-56
2021/12/09 07:29:22;;;;;;;65.55;35.15;;;;;;;1.79;71.95;100019.75;4170947;28;20068;-53
2021/12/09 07:31:25;;;;;;;64.05;34.67;;;;;;;1.82;72.09;100018.19;4180954;28;20401;-53
2021/12/09 07:33:28;;;;;;;60.70;33.28;;;;;;;1.93;71.18;100016.09;4182226;28;20056;-56
2021/12/09 07:35:33;;;;;;;62.85;33.45;;;;;;;1.95;71.08;100006.75;4166618;28;20048;-53
2021/12/09 07:37:38;;;;;;;68.20;35.25;;;;;;;1.96;71.07;100016.22;4182721;28;20053;-52
2021/12/09 07:39:41;;;;;;;69.30;38.33;;;;;;;1.98;70.88;100006.88;4181849;28;20075;-56
2021/12/09 07:41:44;;;;;;;63.50;34.28;;;;;;;2.09;71.05;100022.72;4182778;28;20052;-53
2021/12/09 07:43:47;;;;;;;70.20;35.92;;;;;;;2.15;70.38;100016.97;4181517;28;20067;-59
2021/12/09 07:45:52;;;;;;;65.80;36.43;;;;;;;2.21;70.83;100025.78;4182440;28;20037;-56
2021/12/09 07:47:56;;;;;;;65.03;34.63;;;;;;;2.26;70.28;100023.38;4182662;28;20326;-59
2021/12/09 07:50:00;;;;;;;64.45;33.53;;;;;;;2.24;69.74;100025.03;4183538;28;20033;-59
2021/12/09 07:52:05;;;;;;;63.28;35.53;;;;;;;2.21;69.56;100017.22;4179236;28;20047;-59
2021/12/09 07:54:09;;;;;;;63.58;34.38;;;;;;;2.12;69.61;100016.81;4177323;28;20051;-57
2021/12/09 07:56:12;;;;;;;65.63;35.28;;;;;;;2.04;69.59;100013.94;4183527;28;20065;-59
2021/12/09 07:58:15;;;;;;;63.70;36.20;;;;;;;1.98;69.76;100011.16;4181034;28;20102;-60
2021/12/09 08:00:21;;;;;;;63.75;34.28;;;;;;;1.91;69.77;100016.03;4180446;28;20049;-57
2021/12/09 08:02:24;;;;;;;63.50;33.88;;;;;;;1.88;69.83;100017.56;4160455;28;20125;-56
2021/12/09 08:04:28;;;;;;;57.53;32.65;;;;;;;1.88;70.18;100008.22;4183235;28;20037;-58
2021/12/09 08:06:31;;;;;;;68.88;36.78;;;;;;;1.87;70.06;100015.81;4180664;28;20055;-58
2021/12/09 08:08:36;;;;;;;66.70;35.15;;;;;;;1.84;70.20;100023.38;4180024;28;20037;-59
2021/12/09 08:10:42;;;;;;;61.28;33.08;;;;;;;1.83;69.95;100029.31;4180768;28;20068;-56
2021/12/09 08:12:45;;;;;;;65.65;35.03;;;;;;;1.83;70.17;100029.31;4180739;28;20098;-59
2021/12/09 08:15:02;;;;;;;68.45;36.00;;;;;;;1.77;70.05;100032.50;4179646;28;20075;-57
2021/12/09 08:17:12;;;;;;;61.50;32.92;;;;;;;1.78;70.38;100038.50;4180649;28;20033;-58
2021/12/09 08:19:16;;;;;;;62.47;34.70;;;;;;;1.77;70.13;100049.53;4177612;28;20037;-59
2021/12/09 08:21:19;;;;;;;65.82;34.13;;;;;;;1.79;70.16;100050.50;4178926;28;20048;-60
2021/12/09 08:23:22;;;;;;;62.15;34.20;;;;;;;1.73;70.51;100046.00;4180327;28;20033;-56
2021/12/09 08:25:27;;;;;;;62.72;34.10;;;;;;;1.74;70.33;100043.50;4178552;28;20110;-55
2021/12/09 08:27:30;;;;;;;67.25;34.83;;;;;;;1.74;70.48;100046.06;4177001;28;20041;-58
2021/12/09 08:29:33;;;;;;;60.60;32.20;;;;;;;1.79;70.96;100053.94;4178448;28;20072;-55
2021/12/09 08:31:36;;;;;;;63.30;32.90;;;;;;;1.86;70.45;100045.69;4179468;28;20095;-59
2021/12/09 08:33:50;;;;;;;65.45;34.70;;;;;;;1.88;70.68;100043.19;4175794;28;20033;-57
2021/12/09 08:36:14;;;;;;;61.30;33.53;;;;;;;1.87;70.06;100036.31;4180815;28;20036;-57
2021/12/09 08:38:18;;;;;;;68.35;36.38;;;;;;;1.88;70.11;100030.38;4179260;28;20102;-60
2021/12/09 08:40:21;;;;;;;70.55;35.03;;;;;;;1.89;70.45;100024.44;4180724;28;20113;-59
2021/12/09 08:42:26;;;;;;;64.65;34.92;;;;;;;1.96;71.14;100030.69;4160544;28;20041;-57
2021/12/09 08:44:29;;;;;;;63.20;35.80;;;;;;;1.98;70.36;100035.06;4176879;28;20052;-58
2021/12/09 08:46:35;;;;;;;72.22;36.63;;;;;;;2.05;70.48;100036.22;4179580;28;20037;-61
2021/12/09 08:48:38;;;;;;;60.90;33.90;;;;;;;2.05;70.46;100044.78;4176241;28;20038;-59
2021/12/09 08:50:43;;;;;;;66.82;35.78;;;;;;;2.04;70.28;100030.19;4177869;28;20044;-58
2021/12/09 08:52:47;;;;;;;65.10;34.50;;;;;;;2.06;70.59;100038.84;4175285;28;20041;-58
2021/12/09 08:54:50;;;;;;;65.18;34.85;;;;;;;2.12;70.32;100037.34;4177473;28;20060;-58
2021/12/09 08:57:03;;;;;;;61.70;35.88;;;;;;;2.18;70.25;100035.91;4175638;28;20514;-61
2021/12/09 08:59:08;;;;;;;58.72;33.45;;;;;;;2.23;70.64;100029.28;4177828;28;20063;-59
2021/12/09 09:01:31;;;;;;;62.65;34.38;;;;;;;2.30;69.35;100029.53;4179789;28;20053;-61
2021/12/09 09:03:35;;;;;;;60.70;33.95;;;;;;;2.40;69.96;100035.09;4181129;28;20149;-60
2021/12/09 09:05:40;;;;;;;70.57;36.40;;;;;;;2.47;69.32;100041.34;4179356;28;20037;-61
2021/12/09 09:07:45;;;;;;;58.22;34.60;;;;;;;2.49;69.72;100049.09;4163628;28;20049;-60
2021/12/09 09:09:48;;;;;;;;;;;;;;;2.39;69.05;100042.72;4179953;28;20049;-59
2021/12/09 09:11:51;;;;;;;65.18;33.80;;;;;;;2.42;69.83;100047.97;4178002;28;19991;-60
2021/12/09 09:13:55;;;;;;;67.93;34.88;;;;;;;2.49;69.25;100037.16;4177838;28;20048;-60
2021/12/09 09:15:59;;;;;;;69.82;37.75;;;;;;;2.54;68.71;100034.75;4179462;28;20112;-60
2021/12/09 09:18:04;;;;;;;66.35;36.00;;;;;;;2.56;68.60;100034.00;4184715;28;20047;-60
2021/12/09 09:20:11;;;;;;;65.05;35.45;;;;;;;2.59;68.84;100026.44;4179627;28;20044;-58
2021/12/09 09:22:14;;;;;;;61.13;33.53;;;;;;;2.63;69.01;100001.78;4182677;28;20047;-60
2021/12/09 09:24:17;;;;;;;63.60;34.65;;;;;;;2.70;68.94;100001.19;4182240;28;20036;-60
2021/12/09 09:26:20;;;;;;;65.78;36.90;;;;;;;2.77;68.86;100007.44;4178311;28;20513;-58
2021/12/09 09:28:24;;;;;;;66.05;36.55;;;;;;;2.81;68.45;100005.88;4180876;28;20040;-60
2021/12/09 09:30:34;;;;;;;63.20;35.85;;;;;;;2.85;67.83;99994.88;4178378;28;20049;-59
2021/12/09 09:32:39;;;;;;;63.10;35.63;;;;;;;2.95;67.93;100000.44;4180119;28;20120;-60
2021/12/09 09:34:42;;;;;;;64.00;34.47;;;;;;;3.07;68.05;100001.72;4178402;28;20048;-60
2021/12/09 09:36:45;;;;;;;64.75;35.42;;;;;;;3.14;67.30;100006.25;4178176;28;20086;-60
2021/12/09 09:38:52;;;;;;;69.10;37.13;;;;;;;3.20;67.39;100003.91;4177564;28;20048;-60
2021/12/09 09:41:03;;;;;;;;;;;;;;;3.07;66.96;100006.84;4178873;28;20049;-60